Time;durP1;ratioP1;P1;durP2;ratioP2;P2;SDS_P1;SDS_P2;PMS_P1;PMS_P2;Temp;Humidity;BMP_temperature;BMP_pressure;BME280_temperature;BME280_humidity;BME280_pressure;Samples;Min_cycle;Max_cycle;Signal;HPM_P1;HPM_P2
2023/01/02 00:01:45;;;;;;;10.47;4.80;;;13.70;99.90;;;;;;4182648;28;20207;-80
2023/01/02 00:03:49;;;;;;;8.03;3.80;;;13.70;99.90;;;;;;4179741;28;20208;-80
2023/01/02 00:05:51;;;;;;;10.77;4.03;;;13.70;99.90;;;;;;4179218;28;20225;-80
2023/01/02 00:07:53;;;;;;;8.93;4.57;;;13.70;99.90;;;;;;4181528;28;20203;-80
2023/01/02 00:09:55;;;;;;;12.27;5.13;;;13.70;99.90;;;;;;4176913;28;20234;-80
2023/01/02 00:11:57;;;;;;;9.80;4.23;;;13.70;99.90;;;;;;4178628;28;20254;-78
2023/01/02 00:13:59;;;;;;;11.03;4.77;;;13.70;99.90;;;;;;4171626;28;20693;-79
2023/01/02 00:16:01;;;;;;;8.20;4.50;;;13.70;99.90;;;;;;4178560;28;20199;-81
2023/01/02 00:18:03;;;;;;;10.73;4.50;;;13.70;99.90;;;;;;4167866;28;20205;-82
2023/01/02 00:20:07;;;;;;;13.87;5.00;;;13.70;99.90;;;;;;4180447;28;20277;-81
2023/01/02 00:22:09;;;;;;;11.00;4.40;;;13.70;99.90;;;;;;4177022;28;20211;-81
2023/01/02 00:24:11;;;;;;;10.43;4.60;;;13.80;99.90;;;;;;4177434;28;20208;-80
2023/01/02 00:26:13;;;;;;;8.10;4.13;;;13.70;99.90;;;;;;4178870;28;20216;-80
2023/01/02 00:28:16;;;;;;;9.47;4.60;;;13.80;99.90;;;;;;4175672;28;20211;-80
2023/01/02 00:30:18;;;;;;;8.93;4.50;;;13.80;99.90;;;;;;4155757;28;20297;-80
2023/01/02 00:32:20;;;;;;;8.37;4.17;;;13.80;99.90;;;;;;4175665;28;20213;-80
2023/01/02 00:34:25;;;;;;;7.90;3.90;;;13.80;99.90;;;;;;4162766;28;20218;-79
2023/01/02 00:36:28;;;;;;;9.07;4.27;;;13.80;99.90;;;;;;4178636;28;20209;-79
2023/01/02 00:38:30;;;;;;;9.70;4.37;;;13.80;99.90;;;;;;4175922;28;20196;-80
2023/01/02 00:40:32;;;;;;;11.37;4.70;;;13.80;99.90;;;;;;4179075;28;20293;-80
2023/01/02 00:42:34;;;;;;;8.83;4.07;;;13.80;99.90;;;;;;4182018;28;20201;-81
2023/01/02 00:44:36;;;;;;;9.90;4.27;;;13.80;99.90;;;;;;4166197;28;20255;-81
2023/01/02 00:46:38;;;;;;;9.60;4.07;;;13.80;99.90;;;;;;4180763;28;20222;-78
2023/01/02 00:48:40;;;;;;;9.53;4.20;;;13.80;99.90;;;;;;4180885;28;20219;-80
2023/01/02 00:50:42;;;;;;;7.43;3.90;;;13.80;99.90;;;;;;4179900;28;20220;-81
2023/01/02 00:52:46;;;;;;;8.90;4.20;;;13.80;99.90;;;;;;4169549;28;20298;-80
2023/01/02 00:54:47;;;;;;;9.90;4.07;;;13.90;99.90;;;;;;4178775;28;20199;-80
2023/01/02 00:56:49;;;;;;;8.07;4.07;;;13.90;99.90;;;;;;4188243;28;20199;-80
2023/01/02 00:58:51;;;;;;;9.37;3.70;;;13.90;99.90;;;;;;4183188;28;20242;-80
2023/01/02 01:00:53;;;;;;;9.87;4.20;;;13.90;99.90;;;;;;4166165;28;20197;-81
2023/01/02 01:02:56;;;;;;;7.63;3.67;;;13.90;99.90;;;;;;4185057;28;20225;-80
2023/01/02 01:04:58;;;;;;;7.33;3.67;;;13.90;99.90;;;;;;4183964;28;20202;-80
2023/01/02 01:07:00;;;;;;;6.63;3.53;;;14.00;99.90;;;;;;4168247;28;20222;-80
2023/01/02 01:09:04;;;;;;;7.47;3.97;;;14.00;99.90;;;;;;4183845;28;20245;-81
2023/01/02 01:11:06;;;;;;;6.93;3.67;;;14.00;99.90;;;;;;4181867;28;20230;-81
2023/01/02 01:13:09;;;;;;;8.23;3.60;;;14.10;99.90;;;;;;4184767;28;20214;-81
2023/01/02 01:15:11;;;;;;;6.30;3.53;;;14.10;99.90;;;;;;4184651;28;20204;-80
2023/01/02 01:17:13;;;;;;;5.50;3.67;;;14.10;99.90;;;;;;4184825;28;20204;-80
2023/01/02 01:19:15;;;;;;;6.53;3.43;;;14.20;99.90;;;;;;4185364;28;20224;-81
2023/01/02 01:21:18;;;;;;;6.67;3.10;;;14.20;99.90;;;;;;4193054;28;20201;-81
2023/01/02 01:23:21;;;;;;;7.27;3.30;;;14.20;99.90;;;;;;4183700;28;20249;-81
2023/01/02 01:25:25;;;;;;;6.77;3.40;;;14.20;99.90;;;;;;4175835;28;20250;-81
2023/01/02 01:27:27;;;;;;;5.10;3.23;;;14.20;99.90;;;;;;4187827;28;20215;-80
2023/01/02 01:29:29;;;;;;;7.30;3.33;;;14.20;99.90;;;;;;4188272;28;20231;-81
2023/01/02 01:31:31;;;;;;;6.53;3.33;;;14.20;99.90;;;;;;4187435;28;20205;-80
2023/01/02 01:33:33;;;;;;;7.67;3.60;;;14.30;99.90;;;;;;4189980;28;20229;-82
2023/01/02 01:35:35;;;;;;;6.00;3.10;;;14.20;99.90;;;;;;4188137;28;20212;-81
2023/01/02 01:37:38;;;;;;;5.73;3.43;;;14.30;99.90;;;;;;4191115;28;20405;-81
2023/01/02 01:39:40;;;;;;;6.43;3.23;;;14.30;99.90;;;;;;4187311;28;20299;-81
2023/01/02 01:41:44;;;;;;;7.60;2.90;;;14.30;99.90;;;;;;4192013;28;20219;-81
2023/01/02 01:43:48;;;;;;;5.43;3.03;;;14.30;99.90;;;;;;4190580;28;20213;-80
2023/01/02 01:45:50;;;;;;;6.30;3.30;;;14.30;99.90;;;;;;4189495;28;20247;-81
2023/01/02 01:47:55;;;;;;;5.20;2.97;;;14.40;99.90;;;;;;4190928;28;20229;-81
2023/01/02 01:50:00;;;;;;;6.27;3.20;;;14.40;99.90;;;;;;4188082;28;20247;-81
2023/01/02 01:52:06;;;;;;;6.07;3.07;;;14.40;99.90;;;;;;4186898;28;20627;-80
2023/01/02 01:54:11;;;;;;;5.33;2.80;;;14.40;99.90;;;;;;4189398;28;20517;-80
2023/01/02 01:56:14;;;;;;;5.63;2.80;;;14.40;99.90;;;;;;4190749;28;20616;-80
2023/01/02 01:58:21;;;;;;;5.33;2.90;;;14.40;99.90;;;;;;4187578;28;20234;-80
2023/01/02 02:00:23;;;;;;;5.90;3.00;;;14.40;99.90;;;;;;4187521;28;20214;-80
2023/01/02 02:02:27;;;;;;;8.13;2.87;;;14.40;99.90;;;;;;4184423;28;20216;-81
2023/01/02 02:04:29;;;;;;;6.00;2.97;;;14.40;99.90;;;;;;4186142;28;20209;-80
2023/01/02 02:06:31;;;;;;;7.43;3.07;;;14.40;99.90;;;;;;4188525;28;20236;-81
2023/01/02 02:08:39;;;;;;;7.57;2.80;;;14.40;99.90;;;;;;4185230;28;20217;-80
2023/01/02 02:10:41;;;;;;;6.97;2.93;;;14.40;99.90;;;;;;4190282;28;20207;-80
2023/01/02 02:12:43;;;;;;;4.70;3.13;;;14.50;99.90;;;;;;4189639;28;20244;-81
2023/01/02 02:14:47;;;;;;;6.53;2.67;;;14.50;99.90;;;;;;4187672;28;20212;-81
2023/01/02 02:16:53;;;;;;;5.23;2.77;;;14.40;99.90;;;;;;4187732;28;20212;-81
2023/01/02 02:19:21;;;;;;;5.57;2.73;;;14.40;99.90;;;;;;4191597;28;20236;-81
2023/01/02 02:21:41;;;;;;;5.90;2.80;;;14.40;99.90;;;;;;4189173;28;20203;-81
2023/01/02 02:24:23;;;;;;;5.17;2.80;;;14.40;99.90;;;;;;4184303;28;20217;-81
2023/01/02 02:26:59;;;;;;;4.33;2.30;;;14.40;99.90;;;;;;4189004;28;20212;-81
2023/01/02 02:29:34;;;;;;;6.93;2.53;;;14.40;99.90;;;;;;4185431;28;20569;-81
2023/01/02 02:31:48;;;;;;;6.03;2.80;;;14.40;99.90;;;;;;4187490;28;20208;-81
2023/01/02 02:33:58;;;;;;;4.60;2.40;;;14.40;99.90;;;;;;4188331;28;20220;-80
2023/01/02 02:36:06;;;;;;;5.73;2.87;;;14.30;99.90;;;;;;4186174;28;20202;-80
2023/01/02 02:38:15;;;;;;;4.03;2.40;;;14.40;99.90;;;;;;4186032;28;20216;-82
2023/01/02 02:40:24;;;;;;;5.00;2.87;;;14.30;99.90;;;;;;4184749;28;20206;-81
2023/01/02 02:42:36;;;;;;;5.13;2.40;;;14.30;99.90;;;;;;4189824;28;20630;-81
2023/01/02 02:44:52;;;;;;;4.17;2.70;;;14.30;99.90;;;;;;4187407;28;20208;-80
2023/01/02 02:47:02;;;;;;;4.27;2.63;;;14.30;99.90;;;;;;4186958;28;20276;-81
2023/01/02 02:49:08;;;;;;;10.13;3.10;;;14.30;99.90;;;;;;4188686;28;20260;-81
2023/01/02 02:51:13;;;;;;;5.40;2.60;;;14.20;99.90;;;;;;4185321;28;20224;-81
2023/01/02 02:53:20;;;;;;;4.13;2.57;;;14.20;99.90;;;;;;4188239;28;20288;-81
2023/01/02 02:55:26;;;;;;;6.83;2.80;;;14.20;99.90;;;;;;4186782;28;20213;-81
2023/01/02 02:57:30;;;;;;;6.37;3.00;;;14.20;99.90;;;;;;4182073;28;20207;-80
2023/01/02 02:59:33;;;;;;;5.97;2.80;;;14.10;99.90;;;;;;4186761;28;20239;-80
2023/01/02 03:01:36;;;;;;;6.20;2.87;;;14.20;99.90;;;;;;4185178;28;20852;-81
2023/01/02 03:03:39;;;;;;;4.40;2.30;;;14.10;99.90;;;;;;4185942;28;20233;-81
2023/01/02 03:05:43;;;;;;;4.40;2.43;;;14.20;99.90;;;;;;4180642;28;20205;-81
2023/01/02 03:07:51;;;;;;;4.70;2.60;;;14.20;99.90;;;;;;4183316;28;20235;-81
2023/01/02 03:10:08;;;;;;;6.17;2.70;;;14.10;99.90;;;;;;4187222;28;20231;-81
2023/01/02 03:12:23;;;;;;;4.80;2.43;;;14.20;99.90;;;;;;4184296;28;20254;-81
2023/01/02 03:14:31;;;;;;;3.93;2.23;;;14.10;99.90;;;;;;4185141;28;20234;-81
2023/01/02 03:16:39;;;;;;;6.97;2.63;;;14.10;99.90;;;;;;4168006;28;20466;-80
2023/01/02 03:18:50;;;;;;;3.47;2.10;;;14.20;99.90;;;;;;4184980;28;20237;-81
2023/01/02 03:20:58;;;;;;;5.90;2.40;;;14.20;99.90;;;;;;4186529;28;20208;-81
2023/01/02 03:23:04;;;;;;;4.73;2.60;;;14.20;99.90;;;;;;4174063;28;20187;-81
2023/01/02 03:25:09;;;;;;;5.20;2.47;;;14.20;99.90;;;;;;4169542;28;20220;-81
2023/01/02 03:27:15;;;;;;;5.57;2.00;;;14.20;99.90;;;;;;4184991;28;20243;-81
2023/01/02 03:29:20;;;;;;;5.77;2.53;;;14.20;99.90;;;;;;4166690;28;20236;-81
2023/01/02 03:31:25;;;;;;;4.17;2.33;;;14.20;99.90;;;;;;4188264;28;20208;-81
2023/01/02 03:33:30;;;;;;;5.03;2.17;;;14.20;99.90;;;;;;4189488;28;20259;-81
2023/01/02 03:35:38;;;;;;;4.97;2.60;;;14.20;99.90;;;;;;4178195;28;20202;-81
2023/01/02 03:37:44;;;;;;;4.80;2.10;;;14.20;99.90;;;;;;4188067;28;20223;-81
2023/01/02 03:39:51;;;;;;;4.40;2.30;;;14.10;99.90;;;;;;4187350;28;20227;-81
2023/01/02 03:41:57;;;;;;;5.03;2.40;;;14.10;99.90;;;;;;4185037;28;20273;-81
2023/01/02 03:44:01;;;;;;;4.83;2.40;;;14.10;99.90;;;;;;4187258;28;20205;-81
2023/01/02 03:46:09;;;;;;;5.03;2.20;;;14.10;99.90;;;;;;4170263;28;20296;-81
2023/01/02 03:48:19;;;;;;;5.07;2.23;;;14.10;99.90;;;;;;4185920;28;20221;-81
2023/01/02 03:50:25;;;;;;;3.57;2.33;;;14.10;99.90;;;;;;4168610;28;20215;-81
2023/01/02 03:52:28;;;;;;;5.03;2.50;;;14.10;99.90;;;;;;4183974;28;20204;-81
2023/01/02 03:54:30;;;;;;;5.53;2.40;;;14.10;99.90;;;;;;4184999;28;20210;-81
2023/01/02 03:56:42;;;;;;;6.87;2.80;;;14.10;99.90;;;;;;4183425;28;20202;-81
2023/01/02 03:58:50;;;;;;;5.07;2.27;;;14.10;99.90;;;;;;4186605;28;20223;-81
2023/01/02 04:00:56;;;;;;;5.70;2.37;;;14.10;99.90;;;;;;4183713;28;20202;-81
2023/01/02 04:03:04;;;;;;;4.37;2.00;;;14.10;99.90;;;;;;4184585;28;20246;-80
2023/01/02 04:05:12;;;;;;;5.00;2.07;;;14.10;99.90;;;;;;4184608;28;20206;-81
2023/01/02 04:07:22;;;;;;;4.70;2.20;;;14.10;99.90;;;;;;4186041;28;20225;-81
2023/01/02 04:09:29;;;;;;;4.00;2.20;;;14.10;99.90;;;;;;4186336;28;20248;-81
2023/01/02 04:11:33;;;;;;;4.70;2.40;;;14.10;99.90;;;;;;4187731;28;20209;-81
2023/01/02 04:13:40;;;;;;;6.20;2.30;;;14.10;99.90;;;;;;4187139;28;20257;-81
2023/01/02 04:15:45;;;;;;;5.17;2.07;;;14.10;99.90;;;;;;4185332;28;20214;-81
2023/01/02 04:17:52;;;;;;;6.90;2.40;;;14.10;99.90;;;;;;4187109;28;20212;-81
2023/01/02 04:19:59;;;;;;;3.37;2.10;;;14.10;99.90;;;;;;4187094;28;20237;-81
2023/01/02 04:22:04;;;;;;;3.77;2.13;;;14.10;99.90;;;;;;4184333;28;20208;-81
2023/01/02 04:24:11;;;;;;;6.63;2.63;;;14.10;99.90;;;;;;4166548;28;20212;-81
2023/01/02 04:26:19;;;;;;;3.93;1.90;;;14.10;99.90;;;;;;4164811;28;20215;-81
2023/01/02 04:28:26;;;;;;;3.27;1.97;;;14.10;99.90;;;;;;4186387;28;20224;-80
2023/01/02 04:30:31;;;;;;;6.27;2.53;;;14.10;99.90;;;;;;4188876;28;20204;-81
2023/01/02 04:32:39;;;;;;;4.23;2.23;;;14.10;99.90;;;;;;4186893;28;20234;-81
2023/01/02 04:34:43;;;;;;;6.07;2.53;;;14.10;99.90;;;;;;4186214;28;20199;-81
2023/01/02 04:36:45;;;;;;;5.63;2.30;;;14.10;99.90;;;;;;4184364;28;20211;-81
2023/01/02 04:38:48;;;;;;;7.87;2.37;;;14.10;99.90;;;;;;4168815;28;20237;-81
2023/01/02 04:40:50;;;;;;;4.83;2.50;;;14.10;99.90;;;;;;4180300;28;20208;-81
2023/01/02 04:42:53;;;;;;;7.57;2.20;;;14.10;99.90;;;;;;4168533;28;20502;-81
2023/01/02 04:44:55;;;;;;;7.10;2.37;;;14.10;99.90;;;;;;4184855;28;20212;-81
2023/01/02 04:46:57;;;;;;;7.17;2.13;;;14.10;99.90;;;;;;4184445;28;20236;-80
2023/01/02 04:48:59;;;;;;;6.03;2.73;;;14.00;99.90;;;;;;4175469;28;20759;-81
2023/01/02 04:51:01;;;;;;;4.63;2.50;;;14.10;99.90;;;;;;4167772;28;20204;-81
2023/01/02 04:53:03;;;;;;;5.37;2.07;;;14.10;99.90;;;;;;4185766;28;20200;-81
2023/01/02 04:55:07;;;;;;;4.60;2.10;;;14.10;99.90;;;;;;4190614;28;20218;-81
2023/01/02 04:57:08;;;;;;;3.90;2.27;;;14.10;99.90;;;;;;4189220;28;20208;-81
2023/01/02 04:59:12;;;;;;;4.30;2.07;;;14.00;99.90;;;;;;4183303;28;20237;-81
2023/01/02 05:01:16;;;;;;;4.93;2.37;;;14.00;99.90;;;;;;4189750;28;20196;-80
2023/01/02 05:03:17;;;;;;;5.17;2.07;;;14.00;99.90;;;;;;4188410;28;20224;-80
2023/01/02 05:05:19;;;;;;;4.83;2.20;;;14.00;99.90;;;;;;4186655;28;20285;-80
2023/01/02 05:07:21;;;;;;;3.93;2.27;;;14.00;99.90;;;;;;4170024;28;20267;-81
2023/01/02 05:09:23;;;;;;;5.53;2.17;;;14.00;99.90;;;;;;4188960;28;20229;-81
2023/01/02 05:11:25;;;;;;;4.37;1.90;;;14.00;99.90;;;;;;4173605;28;20223;-80
2023/01/02 05:13:29;;;;;;;4.27;2.30;;;14.00;99.90;;;;;;4186134;28;20205;-80
2023/01/02 05:15:32;;;;;;;5.00;2.03;;;14.00;99.90;;;;;;4171915;28;20199;-80
2023/01/02 05:17:35;;;;;;;5.33;2.03;;;14.00;99.90;;;;;;4190352;28;20203;-80
2023/01/02 05:19:37;;;;;;;4.47;2.30;;;14.00;99.90;;;;;;4187878;28;20242;-80
2023/01/02 05:24:00;;;;;;;4.33;2.07;;;13.90;99.90;;;;;;4188855;28;20209;-81
2023/01/02 05:26:02;;;;;;;4.87;2.40;;;13.90;99.90;;;;;;4189805;28;20200;-80
2023/01/02 05:28:04;;;;;;;5.13;2.30;;;13.90;99.90;;;;;;4173267;28;20270;-81
2023/01/02 05:30:08;;;;;;;4.33;2.73;;;13.90;99.90;;;;;;4190592;28;20235;-81
2023/01/02 05:32:11;;;;;;;7.73;2.80;;;13.90;99.90;;;;;;4174575;28;20231;-81
2023/01/02 05:34:15;;;;;;;3.37;2.20;;;13.90;99.90;;;;;;4188609;28;20203;-81
2023/01/02 05:36:17;;;;;;;10.40;2.33;;;13.90;99.90;;;;;;4167895;28;20213;-81
2023/01/02 05:38:19;;;;;;;3.30;1.73;;;13.90;99.90;;;;;;4172751;28;20206;-81
2023/01/02 05:40:21;;;;;;;6.40;2.30;;;13.90;99.90;;;;;;4191036;28;20305;-81
2023/01/02 05:42:23;;;;;;;4.80;1.90;;;13.90;99.90;;;;;;4188842;28;20202;-81
2023/01/02 05:44:25;;;;;;;4.10;2.30;;;13.90;99.90;;;;;;4186918;28;20201;-81
2023/01/02 05:46:27;;;;;;;6.40;2.33;;;14.20;99.90;;;;;;4186675;28;20227;-81
2023/01/02 05:48:30;;;;;;;4.57;1.90;;;13.90;99.90;;;;;;4187192;28;20229;-80
2023/01/02 05:50:32;;;;;;;7.80;2.33;;;13.90;99.90;;;;;;4191875;28;20195;-81
2023/01/02 05:52:34;;;;;;;6.37;2.10;;;13.90;99.90;;;;;;4168888;28;20205;-80
2023/01/02 05:54:36;;;;;;;2.53;1.83;;;13.90;99.90;;;;;;4189880;28;20208;-81
2023/01/02 05:56:37;;;;;;;5.20;2.30;;;13.90;99.90;;;;;;4187449;28;20197;-80
2023/01/02 05:58:41;;;;;;;5.30;2.50;;;13.90;99.90;;;;;;4188154;28;20219;-80
2023/01/02 06:00:43;;;;;;;7.83;2.20;;;14.00;99.90;;;;;;4183421;28;20205;-80
2023/01/02 06:02:45;;;;;;;6.20;2.30;;;14.00;99.90;;;;;;4188387;28;20216;-80
2023/01/02 06:04:48;;;;;;;5.50;2.03;;;13.90;99.90;;;;;;4174682;28;20256;-80
2023/01/02 06:06:50;;;;;;;7.20;2.07;;;13.90;99.90;;;;;;4186178;28;20208;-81
2023/01/02 06:08:52;;;;;;;6.23;1.93;;;13.90;99.90;;;;;;4184838;28;20224;-80
2023/01/02 06:10:54;;;;;;;3.67;1.80;;;13.90;99.90;;;;;;4184705;28;20210;-81
2023/01/02 06:12:56;;;;;;;7.10;2.03;;;13.90;99.90;;;;;;4186404;28;20207;-81
2023/01/02 06:14:58;;;;;;;6.17;2.17;;;13.90;99.90;;;;;;4184650;28;20215;-81
2023/01/02 06:17:00;;;;;;;4.50;1.90;;;14.00;99.90;;;;;;4172759;28;20209;-80
2023/01/02 06:19:03;;;;;;;4.50;2.10;;;14.00;99.90;;;;;;4187939;28;20214;-81
2023/01/02 06:21:09;;;;;;;4.33;1.90;;;14.00;99.90;;;;;;4169257;28;20265;-80
2023/01/02 06:23:11;;;;;;;4.43;2.40;;;14.00;99.90;;;;;;4187883;28;20260;-81
2023/01/02 06:25:14;;;;;;;4.53;2.20;;;14.00;99.90;;;;;;4187968;28;20226;-80
2023/01/02 06:27:16;;;;;;;5.30;2.30;;;14.00;99.90;;;;;;4185785;28;20284;-80
2023/01/02 06:29:18;;;;;;;3.37;1.83;;;14.00;99.90;;;;;;4170026;28;20288;-81
2023/01/02 06:31:22;;;;;;;6.87;2.20;;;14.10;99.90;;;;;;4169436;28;20204;-81
2023/01/02 06:33:24;;;;;;;4.13;1.80;;;14.00;99.90;;;;;;4188381;28;20210;-81
2023/01/02 06:35:26;;;;;;;8.27;1.90;;;14.00;99.90;;;;;;4192485;28;20201;-80
2023/01/02 06:37:29;;;;;;;6.67;1.80;;;14.00;99.90;;;;;;4185382;28;20241;-80
2023/01/02 06:39:32;;;;;;;4.10;2.00;;;14.00;99.90;;;;;;4190252;28;20225;-80
2023/01/02 06:41:34;;;;;;;4.50;2.20;;;14.00;99.90;;;;;;4193413;28;20211;-80
2023/01/02 06:43:41;;;;;;;5.27;2.13;;;14.00;99.90;;;;;;4173742;28;20236;-80
2023/01/02 06:45:43;;;;;;;5.37;2.30;;;14.00;99.90;;;;;;4183170;28;20213;-80
2023/01/02 06:47:45;;;;;;;6.27;1.90;;;14.00;99.90;;;;;;4188289;28;20220;-81
2023/01/02 06:49:47;;;;;;;4.40;1.90;;;14.00;99.90;;;;;;4170039;28;20263;-80
2023/01/02 06:51:49;;;;;;;4.03;1.60;;;14.00;99.90;;;;;;4172035;28;20241;-80
2023/01/02 06:53:52;;;;;;;4.83;2.10;;;14.00;99.90;;;;;;4186628;28;20267;-80
2023/01/02 06:55:56;;;;;;;8.70;2.43;;;14.00;99.90;;;;;;4169426;28;20790;-81
2023/01/02 06:57:58;;;;;;;8.30;2.33;;;14.00;99.90;;;;;;4170689;28;20208;-80
2023/01/02 07:00:00;;;;;;;7.00;2.20;;;13.90;99.90;;;;;;4191341;28;20233;-81
2023/01/02 07:02:02;;;;;;;4.23;1.97;;;14.00;99.90;;;;;;4186790;28;20207;-80
2023/01/02 07:04:04;;;;;;;4.23;1.97;;;14.00;99.90;;;;;;4163954;28;20235;-80
2023/01/02 07:06:08;;;;;;;5.73;2.23;;;13.90;99.90;;;;;;4175427;28;20664;-80
2023/01/02 07:08:10;;;;;;;3.87;1.73;;;13.90;99.90;;;;;;4188401;28;20231;-81
2023/01/02 07:10:13;;;;;;;3.70;2.00;;;13.80;99.90;;;;;;4170165;28;20227;-81
2023/01/02 07:12:15;;;;;;;5.00;2.20;;;13.80;99.90;;;;;;4186070;28;20207;-80
2023/01/02 07:14:17;;;;;;;3.90;2.30;;;13.70;99.90;;;;;;4182560;28;20211;-80
2023/01/02 07:16:21;;;;;;;7.77;2.20;;;13.70;99.90;;;;;;4185527;28;20211;-80
2023/01/02 07:18:23;;;;;;;4.23;1.93;;;13.80;99.90;;;;;;4181274;28;20200;-80
2023/01/02 07:20:25;;;;;;;4.10;1.83;;;13.70;99.90;;;;;;4186485;28;20212;-80
2023/01/02 07:22:27;;;;;;;3.90;2.17;;;13.70;99.90;;;;;;4171078;28;20214;-81
2023/01/02 07:24:29;;;;;;;5.00;2.10;;;13.70;99.90;;;;;;4186117;28;20416;-80
2023/01/02 07:26:32;;;;;;;5.93;2.20;;;13.80;99.90;;;;;;4185750;28;20205;-80
2023/01/02 07:28:35;;;;;;;4.70;2.10;;;13.70;99.90;;;;;;4186476;28;20250;-80
2023/01/02 07:30:37;;;;;;;3.77;2.17;;;13.70;99.90;;;;;;4174947;28;20208;-80
2023/01/02 07:32:39;;;;;;;7.10;2.37;;;13.70;99.90;;;;;;4186005;28;20215;-80
2023/01/02 07:34:41;;;;;;;6.23;2.43;;;13.70;99.90;;;;;;4172208;28;20214;-80
2023/01/02 07:36:43;;;;;;;6.83;2.40;;;13.70;99.90;;;;;;4188859;28;20216;-81
2023/01/02 07:38:49;;;;;;;5.27;2.27;;;13.70;99.90;;;;;;4185910;28;20279;-81
2023/01/02 07:40:51;;;;;;;4.40;2.10;;;13.70;99.90;;;;;;4186830;28;20225;-80
2023/01/02 07:42:55;;;;;;;6.37;2.93;;;13.70;99.90;;;;;;4176338;28;20203;-81
2023/01/02 07:44:57;;;;;;;3.97;2.50;;;13.70;99.90;;;;;;4187068;28;20202;-80
2023/01/02 07:46:59;;;;;;;7.13;1.93;;;13.70;99.90;;;;;;4172787;28;20438;-81
2023/01/02 07:49:01;;;;;;;4.63;2.33;;;13.70;99.90;;;;;;4184696;28;20229;-80
2023/01/02 07:51:05;;;;;;;5.50;2.47;;;13.70;99.90;;;;;;4175013;28;20221;-80
2023/01/02 07:53:07;;;;;;;3.57;2.00;;;13.70;99.90;;;;;;4167697;28;20242;-80
2023/01/02 07:55:10;;;;;;;4.37;1.93;;;13.70;99.90;;;;;;4167979;28;20228;-81
2023/01/02 07:57:12;;;;;;;4.77;2.30;;;13.70;99.90;;;;;;4193331;28;20203;-80
2023/01/02 07:59:16;;;;;;;5.60;2.33;;;13.70;99.90;;;;;;4189138;28;20220;-81
2023/01/02 08:01:18;;;;;;;5.40;2.17;;;13.70;99.90;;;;;;4181078;28;20205;-80
2023/01/02 08:03:20;;;;;;;6.30;2.10;;;13.70;99.90;;;;;;4183856;28;20225;-80
2023/01/02 08:05:22;;;;;;;4.43;2.10;;;13.70;99.90;;;;;;4190499;28;20211;-81
2023/01/02 08:07:24;;;;;;;6.90;2.30;;;13.70;99.90;;;;;;4171291;28;20286;-81
2023/01/02 08:09:26;;;;;;;7.10;2.20;;;13.70;99.90;;;;;;4171325;28;20720;-80
2023/01/02 08:11:28;;;;;;;5.67;2.43;;;13.70;99.90;;;;;;4167580;28;20203;-81
2023/01/02 08:13:30;;;;;;;4.63;2.10;;;13.70;99.90;;;;;;4177930;28;20222;-81
2023/01/02 08:15:34;;;;;;;7.73;2.50;;;13.70;99.90;;;;;;4175214;28;20204;-81
2023/01/02 08:17:38;;;;;;;5.07;2.17;;;13.70;99.90;;;;;;4181901;28;20206;-81
2023/01/02 08:19:40;;;;;;;4.63;2.20;;;13.70;99.90;;;;;;4176867;28;20227;-81
2023/01/02 08:21:42;;;;;;;5.33;2.27;;;13.70;99.90;;;;;;4187131;28;20232;-81
2023/01/02 08:23:44;;;;;;;4.60;2.20;;;13.70;99.90;;;;;;4176675;28;20204;-81
2023/01/02 08:25:46;;;;;;;5.77;2.30;;;13.70;99.90;;;;;;4161294;28;20242;-81
2023/01/02 08:27:48;;;;;;;5.70;2.20;;;13.70;99.90;;;;;;4165020;28;20219;-80
2023/01/02 08:29:50;;;;;;;6.07;2.10;;;13.70;99.90;;;;;;4164762;28;20235;-80
2023/01/02 08:31:53;;;;;;;6.10;2.30;;;13.60;99.90;;;;;;4174639;28;20219;-80
2023/01/02 08:33:55;;;;;;;6.60;2.20;;;13.70;99.90;;;;;;4179951;28;20219;-81
2023/01/02 08:35:57;;;;;;;5.53;2.23;;;13.70;99.90;;;;;;4176165;28;20202;-81
2023/01/02 08:37:59;;;;;;;4.20;2.17;;;13.60;99.90;;;;;;4163844;28;20268;-81
2023/01/02 08:40:01;;;;;;;4.17;2.30;;;13.70;99.90;;;;;;4176855;28;20274;-81
2023/01/02 08:42:04;;;;;;;3.93;1.97;;;13.60;99.90;;;;;;4164974;28;20211;-81
2023/01/02 08:44:07;;;;;;;4.77;2.10;;;13.60;99.90;;;;;;4160021;28;20300;-81
2023/01/02 08:46:10;;;;;;;6.27;2.17;;;13.70;99.90;;;;;;4177946;28;20211;-81
2023/01/02 08:48:13;;;;;;;5.07;2.10;;;13.60;99.90;;;;;;4174756;28;20208;-81
2023/01/02 08:50:16;;;;;;;4.30;2.03;;;13.60;99.90;;;;;;4166316;28;20295;-81
2023/01/02 08:52:18;;;;;;;5.37;2.20;;;13.70;99.90;;;;;;4160966;28;20589;-81
2023/01/02 08:54:20;;;;;;;9.20;2.30;;;13.70;99.90;;;;;;4171432;28;20253;-81
2023/01/02 08:56:24;;;;;;;5.03;2.00;;;13.70;99.90;;;;;;4173382;28;20202;-81
2023/01/02 08:58:26;;;;;;;3.60;1.90;;;13.70;99.90;;;;;;4176661;28;20200;-81
2023/01/02 09:00:28;;;;;;;5.77;2.10;;;13.70;99.90;;;;;;4162022;28;20209;-81
2023/01/02 09:02:30;;;;;;;9.53;2.10;;;13.70;99.90;;;;;;4180106;28;20214;-81
2023/01/02 09:04:33;;;;;;;7.57;2.13;;;13.70;99.90;;;;;;4159564;28;20228;-81
2023/01/02 09:06:36;;;;;;;6.07;2.20;;;13.70;99.90;;;;;;4159441;28;20234;-81
2023/01/02 09:08:38;;;;;;;3.77;2.20;;;13.70;99.90;;;;;;4179704;28;20218;-81
2023/01/02 09:10:40;;;;;;;5.90;2.37;;;13.70;99.90;;;;;;4163618;28;20213;-81
2023/01/02 09:12:42;;;;;;;5.27;2.27;;;13.70;99.90;;;;;;4181538;28;20710;-81
2023/01/02 09:14:44;;;;;;;3.77;1.93;;;13.70;99.90;;;;;;4175511;28;20208;-81
2023/01/02 09:16:46;;;;;;;5.77;2.17;;;13.70;99.90;;;;;;4153025;28;20211;-81
2023/01/02 09:18:48;;;;;;;5.07;1.90;;;13.70;99.90;;;;;;4177034;28;20293;-81
2023/01/02 09:20:52;;;;;;;4.50;1.93;;;13.70;99.90;;;;;;4165006;28;20239;-81
2023/01/02 09:22:54;;;;;;;5.00;2.23;;;13.80;99.90;;;;;;4170992;28;20213;-81
2023/01/02 09:24:56;;;;;;;9.33;2.50;;;13.70;99.90;;;;;;4175901;28;20233;-81
2023/01/02 09:26:58;;;;;;;6.27;2.43;;;13.70;99.90;;;;;;4169974;28;20291;-81
2023/01/02 09:29:00;;;;;;;4.00;1.90;;;13.80;99.90;;;;;;4160199;28;20737;-81
2023/01/02 09:31:04;;;;;;;5.53;2.20;;;13.80;99.90;;;;;;4162511;28;20689;-81
2023/01/02 09:33:07;;;;;;;4.40;1.90;;;13.80;99.90;;;;;;4175725;28;20213;-81
2023/01/02 09:35:09;;;;;;;6.07;2.10;;;13.80;99.90;;;;;;4177470;28;20219;-81
2023/01/02 09:37:13;;;;;;;4.70;2.00;;;13.80;99.90;;;;;;4157605;28;20212;-81
2023/01/02 09:39:15;;;;;;;3.57;1.80;;;13.80;99.90;;;;;;4178037;28;20229;-81
2023/01/02 09:41:26;;;;;;;4.63;2.00;;;13.80;99.90;;;;;;4163331;28;20235;-80
2023/01/02 09:43:35;;;;;;;5.13;2.10;;;13.80;99.90;;;;;;4162577;28;20208;-81
2023/01/02 09:45:41;;;;;;;4.67;2.03;;;13.90;99.90;;;;;;4177161;28;20199;-81
2023/01/02 09:47:46;;;;;;;9.87;2.30;;;13.90;99.90;;;;;;4174056;28;20214;-82
2023/01/02 09:49:51;;;;;;;4.30;1.90;;;13.90;99.90;;;;;;4178001;28;20718;-82
2023/01/02 09:51:54;;;;;;;6.00;2.23;;;13.90;99.90;;;;;;4162811;28;20275;-81
2023/01/02 09:53:57;;;;;;;7.17;2.03;;;14.00;99.90;;;;;;4172991;28;20599;-81
2023/01/02 09:56:08;;;;;;;4.27;1.90;;;14.00;99.90;;;;;;4171967;28;20208;-81
2023/01/02 09:58:17;;;;;;;6.27;2.13;;;14.00;99.90;;;;;;4165068;28;20270;-81
2023/01/02 10:00:21;;;;;;;5.57;1.87;;;14.10;99.90;;;;;;4159912;28;20204;-81
2023/01/02 10:02:40;;;;;;;4.17;2.10;;;14.10;99.90;;;;;;4160619;28;20274;-81
2023/01/02 10:17:18;;;;;;;5.13;1.93;;;14.30;99.90;;;;;;4095970;28;20215;-80
2023/01/02 10:19:26;;;;;;;4.10;1.80;;;14.30;99.90;;;;;;4092476;29;20244;-79
2023/01/02 10:21:33;;;;;;;5.10;2.20;;;14.40;99.90;;;;;;4108314;28;20206;-79
2023/01/02 10:23:38;;;;;;;4.23;2.10;;;14.50;99.90;;;;;;4175606;28;20206;-79
2023/01/02 10:25:44;;;;;;;6.93;2.13;;;14.40;99.90;;;;;;4155838;28;20649;-79
2023/01/02 10:27:50;;;;;;;8.70;2.47;;;14.50;99.90;;;;;;4167885;28;20209;-81
2023/01/02 10:30:02;;;;;;;8.47;3.70;;;14.60;99.90;;;;;;4163111;28;20289;-82
2023/01/02 10:32:11;;;;;;;9.63;3.70;;;14.60;99.90;;;;;;4159994;28;20640;-81
2023/01/02 10:34:18;;;;;;;10.30;2.60;;;14.70;99.90;;;;;;4160947;28;20211;-82
2023/01/02 10:36:26;;;;;;;5.17;2.37;;;14.70;99.90;;;;;;4174092;28;20202;-81
2023/01/02 10:38:34;;;;;;;5.13;2.20;;;14.70;99.90;;;;;;4158659;28;20197;-82
2023/01/02 10:40:37;;;;;;;2.90;1.87;;;14.70;99.90;;;;;;4173998;28;20199;-81
2023/01/02 10:42:39;;;;;;;4.47;2.10;;;14.70;99.90;;;;;;4181572;28;20831;-80
2023/01/02 10:44:44;;;;;;;3.80;1.80;;;14.80;99.90;;;;;;4179449;28;20209;-82
2023/01/02 10:46:46;;;;;;;6.70;1.93;;;14.80;99.90;;;;;;4168994;28;20204;-81
2023/01/02 10:48:49;;;;;;;4.63;2.00;;;14.80;99.90;;;;;;4175953;28;20226;-80
2023/01/02 10:50:56;;;;;;;4.33;2.07;;;14.80;99.90;;;;;;4178711;28;20248;-81
2023/01/02 10:53:06;;;;;;;5.83;2.03;;;14.80;99.90;;;;;;4179656;28;20207;-82
2023/01/02 10:55:08;;;;;;;3.73;2.03;;;14.90;99.90;;;;;;4180212;28;20205;-81
2023/01/02 10:57:19;;;;;;;5.30;1.83;;;14.90;99.90;;;;;;4165521;28;20282;-81
2023/01/02 10:59:23;;;;;;;4.93;1.93;;;14.90;99.90;;;;;;4177349;28;20229;-80
2023/01/02 11:01:25;;;;;;;5.97;2.17;;;14.90;99.90;;;;;;4171025;28;20206;-80